Time;durP1;ratioP1;P1;durP2;ratioP2;P2;SDS_P1;SDS_P2;PMS_P1;PMS_P2;Temp;Humidity;BMP_temperature;BMP_pressure;BME280_temperature;BME280_humidity;BME280_pressure;Samples;Min_cycle;Max_cycle;Signal;HPM_P1;HPM_P2
2023/04/07 00:02:06;;;;;;;10.07;8.80;;;;;;;0.93;100.00;96364.94;5008566;28;101876;-63
2023/04/07 00:04:33;;;;;;;11.73;9.20;;;;;;;0.92;100.00;96368.56;5008757;28;105376;-63
2023/04/07 00:06:59;;;;;;;10.03;8.37;;;;;;;0.89;100.00;96363.69;5009674;28;102504;-63
2023/04/07 00:09:26;;;;;;;13.20;8.83;;;;;;;0.87;100.00;96363.06;5011846;28;101731;-63
2023/04/07 00:11:55;;;;;;;12.30;8.77;;;;;;;0.75;100.00;96358.56;5013313;28;105609;-63
2023/04/07 00:14:47;;;;;;;10.07;9.07;;;;;;;0.81;100.00;96360.41;5011879;28;105374;-63
2023/04/07 00:17:14;;;;;;;11.23;8.87;;;;;;;0.72;100.00;96357.13;5013278;28;102147;-63
2023/04/07 00:19:42;;;;;;;12.20;9.10;;;;;;;0.71;100.00;96354.72;5020968;28;105298;-63
2023/04/07 00:22:09;;;;;;;11.37;8.90;;;;;;;0.61;100.00;96352.41;5034772;28;105026;-63
2023/04/07 00:24:59;;;;;;;11.73;9.73;;;;;;;0.71;100.00;96357.34;5031768;28;105131;-63
2023/04/07 00:27:27;;;;;;;9.50;8.50;;;;;;;0.88;100.00;96359.44;5033357;27;102728;-63
2023/04/07 00:29:54;;;;;;;11.27;9.60;;;;;;;0.95;100.00;96362.13;5020696;28;102209;-63
2023/04/07 00:32:22;;;;;;;11.97;9.07;;;;;;;0.96;100.00;96355.88;5031195;28;102304;-63
2023/04/07 00:35:07;;;;;;;11.83;9.53;;;;;;;1.03;100.00;96351.50;5031431;28;105679;-63
2023/04/07 00:37:33;;;;;;;11.20;9.57;;;;;;;1.13;100.00;96365.88;5021261;28;101770;-63
2023/04/07 00:40:00;;;;;;;10.30;9.10;;;;;;;0.86;100.00;96355.41;5025406;28;104069;-63
2023/04/07 00:42:29;;;;;;;11.10;9.67;;;;;;;0.88;100.00;96358.66;5030802;28;104902;-63
2023/04/07 00:48:19;;;;;;;11.67;9.57;;;;;;;0.84;100.00;96349.56;5011224;28;105050;-63
2023/04/07 00:50:46;;;;;;;10.43;9.33;;;;;;;0.63;100.00;96350.44;5013669;28;101966;-63
2023/04/07 00:56:35;;;;;;;10.57;8.87;;;;;;;0.41;100.00;96342.78;5010916;28;105890;-63
2023/04/07 00:59:05;;;;;;;11.07;9.57;;;;;;;0.55;100.00;96341.91;5011502;28;101943;-63
2023/04/07 01:01:38;;;;;;;10.93;9.03;;;;;;;0.57;100.00;96347.75;5026137;28;105012;-63
2023/04/07 01:07:35;;;;;;;12.63;8.70;;;;;;;0.53;100.00;96342.09;5015488;28;101849;-63
2023/04/07 01:10:15;;;;;;;12.13;8.80;;;;;;;0.41;100.00;96337.56;5021607;28;105146;-63
2023/04/07 01:13:06;;;;;;;12.37;8.67;;;;;;;0.55;100.00;96340.09;5029702;28;102006;-63
2023/04/07 01:15:36;;;;;;;11.70;8.87;;;;;;;0.37;100.00;96331.91;5014544;28;103731;-63
2023/04/07 01:18:11;;;;;;;9.37;8.37;;;;;;;0.17;100.00;96333.53;5030885;28;105173;-63
2023/04/07 01:20:39;;;;;;;11.97;9.00;;;;;;;0.16;100.00;96333.72;5029648;27;103278;-63
2023/04/07 01:23:18;;;;;;;12.97;8.13;;;;;;;0.22;100.00;96327.75;5031258;28;104878;-63
2023/04/07 01:26:00;;;;;;;9.83;8.47;;;;;;;0.19;100.00;96333.34;5026732;28;105742;-63
2023/04/07 01:28:50;;;;;;;12.40;9.27;;;;;;;0.14;100.00;96325.25;5011185;28;101791;-63
2023/04/07 01:31:20;;;;;;;9.37;8.37;;;;;;;0.12;100.00;96332.50;5039249;27;105619;-63
2023/04/07 01:34:04;;;;;;;10.73;8.50;;;;;;;0.18;100.00;96329.13;5011044;28;101959;-63
2023/04/07 01:36:32;;;;;;;10.63;8.67;;;;;;;0.17;100.00;96324.91;5010899;28;105264;-63
2023/04/07 01:39:00;;;;;;;11.23;8.67;;;;;;;-0.06;100.00;96324.25;5011314;28;105628;-63
2023/04/07 01:41:28;;;;;;;9.40;8.23;;;;;;;-0.04;100.00;96322.28;5012221;28;101894;-63
2023/04/07 01:43:57;;;;;;;10.07;8.30;;;;;;;-0.17;100.00;96322.94;5011814;28;105174;-63
2023/04/07 01:46:26;;;;;;;10.47;8.43;;;;;;;0.03;100.00;96328.38;5010165;28;104143;-63
2023/04/07 01:48:53;;;;;;;10.67;8.90;;;;;;;-0.14;100.00;96321.78;5010794;28;102185;-63
2023/04/07 01:51:21;;;;;;;9.63;8.27;;;;;;;-0.13;100.00;96326.81;5010612;28;105255;-63
2023/04/07 01:54:15;;;;;;;11.53;8.73;;;;;;;-0.11;100.00;96321.38;5013440;28;105687;-63
2023/04/07 01:56:43;;;;;;;12.90;9.60;;;;;;;-0.03;100.00;96323.88;5019652;28;105708;-63
2023/04/07 01:59:10;;;;;;;11.43;8.83;;;;;;;-0.02;100.00;96321.09;5029898;28;105818;-63
2023/04/07 02:01:39;;;;;;;11.03;8.90;;;;;;;-0.13;100.00;96321.59;5016634;28;101931;-63
2023/04/07 02:04:25;;;;;;;11.17;9.57;;;;;;;-0.01;100.00;96316.66;5010647;28;105232;-63
2023/04/07 02:06:56;;;;;;;13.77;10.80;;;;;;;0.09;100.00;96317.16;5009806;28;105347;-63
2023/04/07 02:09:34;;;;;;;9.83;8.07;;;;;;;0.05;100.00;96321.13;5009465;28;101762;-63
2023/04/07 02:12:06;;;;;;;10.03;8.40;;;;;;;-0.06;100.00;96316.41;5011722;28;102318;-63
2023/04/07 02:14:37;;;;;;;10.33;8.70;;;;;;;0.02;100.00;96314.47;5009747;28;105412;-63
2023/04/07 02:17:09;;;;;;;10.20;8.47;;;;;;;0.09;100.00;96315.38;5013848;28;101849;-63
2023/04/07 02:19:37;;;;;;;13.67;9.37;;;;;;;0.13;100.00;96305.34;5022996;28;105811;-63
2023/04/07 02:22:05;;;;;;;13.63;9.80;;;;;;;0.24;100.00;96310.06;5013109;28;101996;-63
2023/04/07 02:24:32;;;;;;;11.80;9.60;;;;;;;0.18;100.00;96301.16;5011222;28;105736;-63
2023/04/07 02:27:00;;;;;;;11.63;9.23;;;;;;;0.10;100.00;96308.31;5009500;28;105592;-63
2023/04/07 02:29:28;;;;;;;11.53;10.10;;;;;;;0.10;100.00;96301.28;5022220;28;102223;-63
2023/04/07 02:31:56;;;;;;;10.77;8.87;;;;;;;0.19;100.00;96294.13;5013299;28;105560;-63
2023/04/07 02:34:39;;;;;;;10.80;9.10;;;;;;;-0.11;100.00;96301.28;5009440;28;105735;-63
2023/04/07 02:37:07;;;;;;;10.63;8.80;;;;;;;-0.28;100.00;96299.09;5018966;28;101899;-63
2023/04/07 02:39:34;;;;;;;10.43;9.13;;;;;;;-0.20;100.00;96291.94;5032590;28;104067;-63
2023/04/07 02:42:01;;;;;;;11.80;9.00;;;;;;;-0.15;100.00;96288.81;5011284;27;101976;-63
2023/04/07 02:44:34;;;;;;;11.30;9.67;;;;;;;-0.13;100.00;96287.63;5010087;28;105631;-63
2023/04/07 02:47:02;;;;;;;12.83;9.87;;;;;;;-0.07;100.00;96288.66;5010732;28;103035;-63
2023/04/07 02:49:29;;;;;;;12.17;8.97;;;;;;;0.08;100.00;96292.03;5009747;28;101980;-63
2023/04/07 02:51:57;;;;;;;11.60;10.30;;;;;;;0.19;100.00;96286.28;5028684;28;105579;-63
2023/04/07 02:54:36;;;;;;;13.37;10.33;;;;;;;0.11;100.00;96289.03;5025804;27;102542;-63
2023/04/07 02:57:03;;;;;;;11.50;9.43;;;;;;;0.14;100.00;96291.28;5008858;28;102035;-63
2023/04/07 02:59:30;;;;;;;12.10;9.60;;;;;;;0.26;100.00;96281.91;5010569;28;104588;-63
2023/04/07 03:01:57;;;;;;;12.50;10.07;;;;;;;0.28;100.00;96288.56;5012628;28;104686;-63
2023/04/07 03:04:25;;;;;;;11.97;10.33;;;;;;;0.11;100.00;96278.59;5008664;28;105573;-63
2023/04/07 03:06:52;;;;;;;11.30;9.27;;;;;;;0.22;100.00;96278.88;5008025;28;105709;-63
2023/04/07 03:09:21;;;;;;;10.17;9.10;;;;;;;0.02;100.00;96277.09;5010615;28;103498;-63
2023/04/07 03:11:48;;;;;;;12.77;9.73;;;;;;;-0.02;100.00;96271.44;5010752;28;102899;-63
2023/04/07 03:15:01;;;;;;;11.00;9.23;;;;;;;-0.03;100.00;96272.44;5028144;28;105069;-63
2023/04/07 03:17:30;;;;;;;11.93;9.93;;;;;;;-0.22;100.00;96271.44;5030546;27;101838;-63
2023/04/07 03:19:57;;;;;;;11.43;9.30;;;;;;;-0.10;100.00;96271.56;5028541;28;105389;-63
2023/04/07 03:22:26;;;;;;;13.83;10.20;;;;;;;-0.11;100.00;96267.31;5030591;28;105527;-63
2023/04/07 03:25:22;;;;;;;14.97;9.93;;;;;;;0.09;100.00;96275.34;5028484;28;104876;-63
2023/04/07 03:27:50;;;;;;;12.07;10.23;;;;;;;0.09;100.00;96270.09;5026809;28;105335;-63
2023/04/07 03:30:18;;;;;;;11.90;9.50;;;;;;;0.03;100.00;96266.47;5015583;28;101851;-63
2023/04/07 03:32:46;;;;;;;13.53;10.37;;;;;;;0.05;100.00;96268.84;5010506;28;105092;-63
2023/04/07 03:35:13;;;;;;;12.83;9.90;;;;;;;0.03;100.00;96270.88;4991345;28;105714;-63
2023/04/07 03:37:40;;;;;;;12.03;10.37;;;;;;;-0.16;100.00;96274.13;5009152;28;101867;-63
2023/04/07 03:40:12;;;;;;;11.37;9.37;;;;;;;-0.22;100.00;96262.59;5008112;28;105058;-63
2023/04/07 03:42:40;;;;;;;10.83;9.27;;;;;;;-0.16;100.00;96261.06;5010175;28;105327;-63
2023/04/07 03:45:09;;;;;;;11.50;9.40;;;;;;;-0.16;100.00;96266.28;5019227;28;102209;-63
2023/04/07 03:47:41;;;;;;;11.63;9.13;;;;;;;-0.11;100.00;96266.50;5031860;28;105385;-63
2023/04/07 03:50:09;;;;;;;15.97;9.83;;;;;;;-0.22;100.00;96261.00;5024453;28;102057;-63
2023/04/07 03:52:46;;;;;;;11.73;9.43;;;;;;;-0.18;100.00;96260.41;5015605;28;105184;-63
2023/04/07 03:55:22;;;;;;;11.67;9.47;;;;;;;-0.22;100.00;96268.81;5016255;28;105442;-63
2023/04/07 03:57:54;;;;;;;11.40;9.40;;;;;;;-0.26;100.00;96260.56;5015851;28;101818;-63
2023/04/07 04:00:21;;;;;;;12.03;10.07;;;;;;;-0.23;100.00;96260.16;5025744;28;104965;-63
2023/04/07 04:03:05;;;;;;;11.33;9.93;;;;;;;-0.13;100.00;96260.66;4994076;28;105754;-63
2023/04/07 04:05:34;;;;;;;11.00;9.77;;;;;;;-0.13;100.00;96265.91;4995514;28;101790;-63
2023/04/07 04:08:01;;;;;;;10.80;9.30;;;;;;;0.01;100.00;96262.41;5014634;28;104039;-63
2023/04/07 04:10:29;;;;;;;14.33;10.67;;;;;;;-0.17;100.00;96260.25;5015229;28;102242;-63
2023/04/07 04:13:38;;;;;;;12.60;10.03;;;;;;;0.03;100.00;96256.00;5014467;28;104850;-63
2023/04/07 04:16:08;;;;;;;12.57;10.20;;;;;;;0.08;100.00;96258.03;4993745;28;105101;-63
2023/04/07 04:18:37;;;;;;;12.50;9.70;;;;;;;0.17;100.00;96257.72;5010008;28;101888;-63
2023/04/07 04:21:08;;;;;;;11.37;9.97;;;;;;;0.04;100.00;96256.78;5015997;28;104834;-63
2023/04/07 04:23:45;;;;;;;12.70;10.43;;;;;;;0.14;100.00;96257.28;4997072;28;105041;-63
2023/04/07 04:26:12;;;;;;;13.17;9.93;;;;;;;0.15;100.00;96253.66;5014345;28;101939;-63
2023/04/07 04:28:42;;;;;;;11.10;9.87;;;;;;;0.22;100.00;96257.94;5015170;28;105031;-63
2023/04/07 04:31:11;;;;;;;11.87;9.97;;;;;;;0.23;100.00;96253.53;5035370;28;104818;-63
2023/04/07 04:33:45;;;;;;;13.03;10.17;;;;;;;0.40;100.00;96249.63;5035016;28;101724;-63
2023/04/07 04:36:12;;;;;;;14.33;10.53;;;;;;;0.56;100.00;96251.97;5033969;28;105538;-63
2023/04/07 04:38:40;;;;;;;11.77;10.20;;;;;;;0.55;100.00;96248.53;5018484;28;101967;-63
2023/04/07 04:41:15;;;;;;;12.03;10.77;;;;;;;0.46;100.00;96248.88;5015326;28;105365;-63
2023/04/07 04:43:45;;;;;;;14.40;10.73;;;;;;;0.57;100.00;96251.78;5013641;28;105192;-63
2023/04/07 04:46:18;;;;;;;12.27;10.17;;;;;;;0.57;100.00;96251.78;4978102;28;101948;-63
2023/04/07 04:48:45;;;;;;;14.00;10.83;;;;;;;0.65;100.00;96248.19;5026190;28;105037;-63
2023/04/07 04:51:12;;;;;;;12.90;11.37;;;;;;;0.74;100.00;96249.66;5018122;28;105076;-62
2023/04/07 04:53:54;;;;;;;15.23;11.13;;;;;;;0.85;100.00;96252.53;5016766;28;102003;-62
2023/04/07 04:56:23;;;;;;;13.33;10.73;;;;;;;0.95;100.00;96252.19;5010802;28;105596;-62
2023/04/07 04:58:51;;;;;;;11.93;10.40;;;;;;;1.02;100.00;96245.16;5010462;28;101985;-62
2023/04/07 05:01:28;;;;;;;13.47;10.87;;;;;;;1.25;100.00;96248.25;5011551;28;103734;-62
2023/04/07 05:04:09;;;;;;;14.30;10.57;;;;;;;1.46;100.00;96253.38;4994541;28;105169;-63
2023/04/07 05:06:36;;;;;;;13.93;10.63;;;;;;;1.67;100.00;96243.56;5010153;28;101912;-63
2023/04/07 05:09:08;;;;;;;12.97;11.03;;;;;;;1.88;100.00;96253.88;5010632;28;105161;-63
2023/04/07 05:11:44;;;;;;;14.17;11.40;;;;;;;2.09;100.00;96248.44;5029147;28;105249;-63
2023/04/07 05:14:29;;;;;;;14.07;11.03;;;;;;;2.23;100.00;96249.25;5015464;28;102060;-63
2023/04/07 05:17:04;;;;;;;14.67;11.70;;;;;;;2.21;100.00;96241.59;5013331;28;104455;-62
2023/04/07 05:19:31;;;;;;;15.20;11.30;;;;;;;2.34;100.00;96246.00;5011693;28;101911;-62
2023/04/07 05:22:04;;;;;;;13.67;11.50;;;;;;;2.35;100.00;96242.41;4995545;28;105081;-63
2023/04/07 05:25:03;;;;;;;12.33;10.57;;;;;;;2.18;100.00;96242.00;5009900;28;104169;-63
2023/04/07 05:27:30;;;;;;;15.50;11.03;;;;;;;2.29;100.00;96246.63;5010105;28;101831;-62
2023/04/07 05:30:02;;;;;;;11.63;10.43;;;;;;;2.33;100.00;96250.47;5014037;28;105305;-63
2023/04/07 05:32:34;;;;;;;12.23;10.90;;;;;;;2.37;100.00;96250.88;5021457;28;105572;-62
2023/04/07 05:35:19;;;;;;;11.43;10.23;;;;;;;2.28;100.00;96246.81;5011850;28;101838;-63
2023/04/07 05:37:52;;;;;;;12.33;10.50;;;;;;;2.28;100.00;96246.81;5026416;28;105254;-63
2023/04/07 05:40:19;;;;;;;12.87;10.53;;;;;;;2.24;100.00;96250.88;5040316;27;103412;-62
2023/04/07 05:42:47;;;;;;;12.63;10.40;;;;;;;2.28;100.00;96249.44;5009989;28;104816;-62
2023/04/07 05:45:14;;;;;;;13.60;10.93;;;;;;;2.32;100.00;96253.28;5009304;28;105811;-63
2023/04/07 05:47:48;;;;;;;14.13;10.70;;;;;;;2.36;100.00;96249.25;5018475;28;101970;-62
2023/04/07 05:50:19;;;;;;;13.83;11.43;;;;;;;2.40;100.00;96255.72;5029475;28;105257;-62
2023/04/07 05:52:47;;;;;;;12.97;10.07;;;;;;;2.50;100.00;96245.59;5019241;28;105448;-62
2023/04/07 05:55:26;;;;;;;12.17;10.27;;;;;;;2.54;100.00;96244.19;5009659;28;101859;-62
2023/04/07 05:57:53;;;;;;;12.03;10.07;;;;;;;2.54;100.00;96244.19;5009651;28;104986;-63
2023/04/07 06:00:22;;;;;;;13.73;10.57;;;;;;;2.50;100.00;96245.59;5028447;28;105413;-62
2023/04/07 06:03:06;;;;;;;13.20;11.30;;;;;;;2.63;100.00;96245.59;5029692;28;105624;-62
2023/04/07 06:05:46;;;;;;;15.03;11.80;;;;;;;2.65;100.00;96249.63;4996531;28;105568;-62
2023/04/07 06:08:14;;;;;;;14.30;12.20;;;;;;;2.78;100.00;96251.44;5013691;28;101871;-63
2023/04/07 06:10:43;;;;;;;13.43;11.47;;;;;;;2.80;100.00;96252.03;5009281;28;105535;-63
2023/04/07 06:13:09;;;;;;;16.60;12.33;;;;;;;2.74;100.00;96252.84;5027365;28;105933;-62
2023/04/07 06:15:36;;;;;;;13.90;12.03;;;;;;;2.75;100.00;96249.22;5023074;28;102156;-63
2023/04/07 06:18:03;;;;;;;16.33;13.33;;;;;;;2.93;100.00;96252.81;5024716;28;104863;-63
2023/04/07 06:20:31;;;;;;;14.20;11.87;;;;;;;2.79;100.00;96245.94;5029808;27;102532;-63
2023/04/07 06:23:01;;;;;;;13.20;11.23;;;;;;;3.01;100.00;96244.69;5015022;28;101988;-63
2023/04/07 06:25:28;;;;;;;13.17;11.77;;;;;;;3.07;100.00;96240.44;5008721;28;105850;-63
2023/04/07 06:27:55;;;;;;;12.60;11.23;;;;;;;2.94;100.00;96243.09;5009376;28;101831;-63
2023/04/07 06:30:23;;;;;;;13.47;11.47;;;;;;;2.95;100.00;96244.72;5009194;28;104799;-63
2023/04/07 06:32:52;;;;;;;13.57;11.13;;;;;;;3.11;100.00;96237.19;5008426;28;105078;-63
2023/04/07 06:35:19;;;;;;;13.53;11.10;;;;;;;3.10;100.00;96232.13;5010204;28;101994;-63
2023/04/07 06:37:47;;;;;;;12.33;10.93;;;;;;;3.15;100.00;96234.94;5010323;28;104992;-63
2023/04/07 06:40:15;;;;;;;12.23;10.93;;;;;;;3.30;100.00;96232.88;5008323;28;105391;-63
2023/04/07 06:42:42;;;;;;;13.83;11.13;;;;;;;3.37;100.00;96231.00;5009042;28;101860;-63
2023/04/07 06:45:16;;;;;;;12.80;11.00;;;;;;;3.47;100.00;96234.00;5014128;28;104961;-63
2023/04/07 06:47:43;;;;;;;11.63;10.13;;;;;;;3.55;100.00;96241.66;5028913;28;101894;-63
2023/04/07 06:50:10;;;;;;;11.57;9.53;;;;;;;3.70;100.00;96231.63;5025550;28;105566;-63
2023/04/07 06:52:37;;;;;;;9.30;8.40;;;;;;;3.74;100.00;96227.56;5009090;28;105355;-62
2023/04/07 06:55:09;;;;;;;9.30;8.00;;;;;;;3.76;100.00;96228.97;5012329;28;101927;-63
2023/04/07 06:57:36;;;;;;;9.03;7.40;;;;;;;3.65;100.00;96229.66;5009786;28;105321;-63
2023/04/07 07:00:03;;;;;;;8.80;7.67;;;;;;;3.65;100.00;96226.22;5014054;28;105625;-62
2023/04/07 07:02:29;;;;;;;9.20;8.20;;;;;;;3.67;100.00;96234.69;5027551;28;103645;-63
2023/04/07 07:04:58;;;;;;;10.10;8.63;;;;;;;3.69;100.00;96233.47;5025019;28;104968;-63
2023/04/07 07:07:25;;;;;;;9.10;8.20;;;;;;;3.82;100.00;96232.59;5012404;28;105759;-63
2023/04/07 07:09:52;;;;;;;10.33;8.70;;;;;;;3.94;100.00;96236.16;5009515;28;105143;-63
2023/04/07 07:12:21;;;;;;;10.00;8.10;;;;;;;4.14;100.00;96231.56;5019214;28;105393;-62
2023/04/07 07:14:48;;;;;;;9.50;8.50;;;;;;;4.24;100.00;96229.22;5029380;28;101869;-62
2023/04/07 07:17:16;;;;;;;11.87;8.60;;;;;;;4.39;100.00;96222.63;5028840;27;105168;-62
2023/04/07 07:19:43;;;;;;;9.67;8.60;;;;;;;4.46;100.00;96219.94;5021618;28;105417;-63
2023/04/07 07:22:09;;;;;;;9.77;8.77;;;;;;;4.49;100.00;96220.31;5010898;28;101842;-63
2023/04/07 07:24:58;;;;;;;11.97;10.03;;;;;;;4.61;100.00;96223.03;5016208;28;102342;-63
2023/04/07 07:27:26;;;;;;;13.27;11.03;;;;;;;4.72;100.00;96225.78;5027711;27;103249;-64
2023/04/07 07:29:53;;;;;;;12.93;10.60;;;;;;;4.89;100.00;96220.72;5033294;27;101785;-63
2023/04/07 07:32:20;;;;;;;12.33;10.30;;;;;;;5.11;100.00;96221.91;5027271;27;102689;-63
2023/04/07 07:35:04;;;;;;;12.07;10.53;;;;;;;5.18;100.00;96220.00;5029835;27;101783;-63
2023/04/07 07:37:32;;;;;;;13.17;11.67;;;;;;;5.18;100.00;96215.53;5024104;27;102840;-63
2023/04/07 07:39:58;;;;;;;14.33;12.13;;;;;;;5.26;100.00;96206.50;5008894;28;103047;-64
2023/04/07 07:42:27;;;;;;;13.33;11.63;;;;;;;5.31;100.00;96209.28;5009057;28;101899;-63
2023/04/07 07:45:07;;;;;;;13.23;11.50;;;;;;;5.49;100.00;96202.16;5009330;28;102906;-63
2023/04/07 07:47:36;;;;;;;16.40;13.20;;;;;;;5.79;100.00;96202.94;5018582;28;102617;-63
2023/04/07 07:50:03;;;;;;;15.23;12.57;;;;;;;6.02;100.00;96210.97;5032684;28;101901;-64
2023/04/07 07:52:30;;;;;;;13.17;11.00;;;;;;;6.11;100.00;96212.25;5027299;27;102079;-63
2023/04/07 07:54:59;;;;;;;13.17;10.83;;;;;;;6.09;100.00;96205.59;5025567;27;102048;-63
2023/04/07 07:57:27;;;;;;;10.90;9.73;;;;;;;6.28;100.00;96215.81;5009505;28;102441;-63
2023/04/07 07:59:54;;;;;;;11.93;10.40;;;;;;;6.31;100.00;96217.22;5025976;28;103134;-63
2023/04/07 08:02:21;;;;;;;10.73;9.63;;;;;;;6.51;100.00;96207.94;5009605;28;101941;-64
2023/04/07 08:08:10;;;;;;;10.77;9.53;;;;;;;6.66;100.00;96202.22;5012959;28;104537;-64
2023/04/07 08:10:37;;;;;;;11.43;9.90;;;;;;;6.53;100.00;96200.59;5030289;27;101820;-63
2023/04/07 08:13:15;;;;;;;11.23;9.70;;;;;;;6.35;100.00;96208.63;5032910;27;102870;-63
2023/04/07 08:15:42;;;;;;;10.20;8.67;;;;;;;6.38;100.00;96202.88;5026366;28;102002;-64
2023/04/07 08:18:09;;;;;;;11.43;9.80;;;;;;;6.48;100.00;96199.66;5027122;28;105128;-63
2023/04/07 08:20:37;;;;;;;22.37;14.37;;;;;;;6.68;100.00;96194.84;5027815;28;105771;-63
2023/04/07 08:23:05;;;;;;;16.17;11.97;;;;;;;6.84;100.00;96202.06;5023902;28;101845;-63
2023/04/07 08:25:32;;;;;;;15.43;11.30;;;;;;;6.89;100.00;96208.28;5041382;27;105177;-63
2023/04/07 08:27:58;;;;;;;18.57;12.87;;;;;;;6.89;100.00;96205.66;5041770;27;105587;-63
2023/04/07 08:30:27;;;;;;;11.57;9.33;;;;;;;6.95;100.00;96206.53;5010545;28;102179;-63
2023/04/07 08:33:06;;;;;;;13.43;10.77;;;;;;;7.05;100.00;96196.19;5019408;28;102298;-64
2023/04/07 08:35:32;;;;;;;10.83;9.73;;;;;;;7.08;100.00;96201.00;5068095;27;105152;-64
2023/04/07 08:38:01;;;;;;;10.83;9.10;;;;;;;7.26;100.00;96203.50;5024496;28;105356;-64
2023/04/07 08:40:28;;;;;;;11.30;8.60;;;;;;;7.07;100.00;96202.84;5012368;28;105338;-63
2023/04/07 08:43:00;;;;;;;9.57;8.13;;;;;;;6.95;100.00;96198.59;5019066;28;101915;-63
2023/04/07 08:45:30;;;;;;;7.90;7.10;;;;;;;7.13;100.00;96196.63;5031724;28;105132;-63
2023/04/07 08:48:03;;;;;;;7.80;7.10;;;;;;;7.42;100.00;96192.97;5031330;28;105027;-64
2023/04/07 08:50:31;;;;;;;8.27;7.33;;;;;;;7.63;100.00;96197.63;5063262;27;101973;-63
2023/04/07 08:53:31;;;;;;;8.60;7.30;;;;;;;7.75;100.00;96189.63;5018839;28;105087;-63
2023/04/07 08:56:01;;;;;;;7.93;7.13;;;;;;;7.67;100.00;96187.34;5012203;28;103672;-63
2023/04/07 08:58:30;;;;;;;9.07;7.53;;;;;;;7.96;100.00;96186.31;5014968;28;101783;-63
2023/04/07 09:00:58;;;;;;;8.80;7.40;;;;;;;8.33;100.00;96187.47;5031279;28;102824;-63
2023/04/07 09:03:33;;;;;;;11.13;7.53;;;;;;;8.61;100.00;96185.53;5031390;28;101977;-63
2023/04/07 09:06:01;;;;;;;9.43;8.43;;;;;;;9.06;100.00;96180.09;5031511;27;102969;-63
2023/04/07 09:08:28;;;;;;;15.33;9.87;;;;;;;9.13;100.00;96183.34;5025444;27;105792;-64
2023/04/07 09:10:57;;;;;;;10.93;8.50;;;;;;;9.09;100.00;96179.56;4992734;28;101867;-63
2023/04/07 09:13:26;;;;;;;10.13;7.67;;;;;;;8.90;100.00;96176.41;5013821;28;103396;-64
2023/04/07 09:15:53;;;;;;;8.40;7.17;;;;;;;9.19;100.00;96179.72;5032347;27;102465;-63
2023/04/07 09:18:22;;;;;;;7.53;6.83;;;;;;;9.74;100.00;96165.22;5032278;27;101813;-64
2023/04/07 09:20:55;;;;;;;7.33;6.63;;;;;;;10.11;100.00;96171.47;5035095;27;102526;-63
2023/04/07 09:24:16;;;;;;;7.60;6.80;;;;;;;10.41;100.00;96169.06;5012117;28;101954;-64
2023/04/07 09:26:43;;;;;;;7.70;6.70;;;;;;;10.61;100.00;96163.88;5024209;28;105705;-63
2023/04/07 09:29:19;;;;;;;9.73;7.47;;;;;;;10.82;100.00;96162.16;5032169;27;103169;-64
2023/04/07 09:31:48;;;;;;;7.00;6.30;;;;;;;11.09;100.00;96158.34;5030991;28;101754;-64
2023/04/07 09:35:06;;;;;;;6.03;5.43;;;;;;;10.89;95.31;96157.41;5013679;28;103860;-64
2023/04/07 09:37:35;;;;;;;7.37;5.50;;;;;;;11.24;100.00;96154.94;4927232;28;102928;-63
2023/04/07 09:40:02;;;;;;;5.70;5.07;;;;;;;11.52;100.00;96151.84;4961757;28;102428;-63
2023/04/07 09:42:31;;;;;;;5.53;4.93;;;;;;;11.73;98.30;96150.88;5010794;28;105207;-77
2023/04/07 09:44:58;;;;;;;5.20;4.70;;;;;;;11.51;87.39;96148.38;5014499;28;101907;-63
2023/04/07 09:47:29;;;;;;;5.13;4.63;;;;;;;11.83;78.74;96148.25;4999858;28;104810;-64
2023/04/07 09:49:58;;;;;;;5.43;4.93;;;;;;;12.03;78.54;96142.91;5009586;28;105091;-65
2023/04/07 09:52:46;;;;;;;5.50;5.00;;;;;;;12.00;74.06;96140.81;5010526;28;102034;-65
2023/04/07 09:55:15;;;;;;;5.37;4.77;;;;;;;12.02;74.93;96139.47;5010565;28;103796;-64
2023/04/07 09:57:44;;;;;;;7.27;4.60;;;;;;;12.07;73.58;96138.66;5011447;28;103172;-64
2023/04/07 10:00:12;;;;;;;5.13;4.63;;;;;;;11.30;77.83;96138.75;5012019;27;101906;-64
2023/04/07 10:02:42;;;;;;;5.10;4.57;;;;;;;11.52;80.18;96143.84;5012382;28;102302;-64
2023/04/07 10:05:10;;;;;;;5.57;4.87;;;;;;;11.60;80.77;96138.03;5014702;28;102685;-64
2023/04/07 10:07:37;;;;;;;5.80;5.27;;;;;;;11.73;75.63;96132.22;5010774;28;104538;-64
2023/04/07 10:10:06;;;;;;;5.17;4.67;;;;;;;11.36;75.63;96139.53;5012394;28;103841;-64
2023/04/07 10:12:37;;;;;;;4.70;4.20;;;;;;;11.67;76.02;96134.06;5031940;27;101745;-64
2023/04/07 10:15:05;;;;;;;5.97;4.33;;;;;;;11.86;74.90;96132.53;5012413;28;105382;-64
2023/04/07 10:17:33;;;;;;;5.30;4.80;;;;;;;11.42;71.37;96133.16;5029865;28;105403;-64
2023/04/07 10:20:02;;;;;;;4.87;4.43;;;;;;;10.88;72.12;96124.69;5012104;28;101980;-65
2023/04/07 10:22:30;;;;;;;6.60;4.40;;;;;;;11.08;74.08;96129.31;5010076;28;105124;-66
2023/04/07 10:25:02;;;;;;;5.70;5.20;;;;;;;11.53;79.21;96122.28;5009884;28;104996;-66
2023/04/07 10:27:32;;;;;;;5.20;4.70;;;;;;;11.93;72.24;96126.94;5024565;28;101902;-66
2023/04/07 10:30:03;;;;;;;5.93;5.00;;;;;;;12.15;71.66;96130.94;5024083;28;105490;-64
2023/04/07 10:32:30;;;;;;;4.80;4.40;;;;;;;12.52;69.23;96125.31;5010164;28;101989;-64
2023/04/07 10:35:01;;;;;;;5.30;4.77;;;;;;;12.58;66.17;96125.06;5014983;28;105267;-64
2023/04/07 10:37:28;;;;;;;4.70;4.30;;;;;;;12.69;66.15;96128.50;5028962;28;105005;-64
2023/04/07 10:40:30;;;;;;;14.90;11.80;;;;;;;12.92;63.75;96126.06;5025157;28;101945;-64
2023/04/07 10:43:00;;;;;;;12.83;10.13;;;;;;;12.85;66.66;96122.06;5009000;28;105350;-71
2023/04/07 10:45:55;;;;;;;8.63;6.47;;;;;;;13.04;63.40;96123.13;5020071;28;104990;-64
2023/04/07 10:48:22;;;;;;;5.93;4.70;;;;;;;13.02;63.00;96117.28;5029603;27;101781;-64
2023/04/07 10:51:15;;;;;;;5.23;4.73;;;;;;;12.66;62.44;96121.06;5019967;27;102513;-64
2023/04/07 10:54:25;;;;;;;4.70;4.30;;;;;;;12.38;60.90;96114.41;5009942;28;102186;-64
2023/04/07 10:57:13;;;;;;;5.60;5.00;;;;;;;12.51;61.23;96116.53;5015506;28;102396;-64
2023/04/07 10:59:45;;;;;;;5.33;4.83;;;;;;;12.53;56.44;96114.41;5027192;28;105347;-64
2023/04/07 11:02:32;;;;;;;11.30;8.97;;;;;;;13.15;57.32;96108.69;5030881;27;101719;-64
2023/04/07 11:05:01;;;;;;;21.03;15.13;;;;;;;13.49;56.31;96106.91;5018407;27;101706;-64
2023/04/07 11:07:47;;;;;;;6.07;5.43;;;;;;;13.57;54.95;96103.69;5016065;28;103707;-64
2023/04/07 11:10:15;;;;;;;12.77;9.90;;;;;;;13.72;53.31;96109.72;5024136;28;101777;-64
2023/04/07 11:12:42;;;;;;;11.43;8.70;;;;;;;13.78;55.31;96105.13;5010965;28;102607;-64
2023/04/07 11:15:20;;;;;;;20.33;13.83;;;;;;;14.11;56.80;96101.72;5012263;28;105347;-64
2023/04/07 11:18:06;;;;;;;6.80;4.87;;;;;;;13.24;56.09;96101.72;5008594;28;103602;-64
2023/04/07 11:20:45;;;;;;;4.43;4.03;;;;;;;13.25;56.46;96101.41;5017733;28;105574;-64
2023/04/07 11:23:13;;;;;;;7.33;5.90;;;;;;;13.63;59.43;96099.91;5030934;27;101823;-64
2023/04/07 11:25:43;;;;;;;7.93;6.83;;;;;;;13.59;54.07;96094.31;5029423;27;101789;-64
2023/04/07 11:28:11;;;;;;;5.07;4.57;;;;;;;13.41;54.45;96094.94;5016503;27;102605;-64
2023/04/07 11:30:38;;;;;;;5.17;4.67;;;;;;;13.03;55.04;96097.50;5009367;28;102011;-64
2023/04/07 11:33:09;;;;;;;4.90;4.50;;;;;;;13.76;54.99;96093.94;5009447;28;105159;-64
2023/04/07 11:35:36;;;;;;;8.37;7.57;;;;;;;14.29;54.72;96085.81;5009634;28;105031;-64
2023/04/07 11:38:03;;;;;;;4.53;4.13;;;;;;;13.60;54.36;96084.41;5024982;28;101967;-64
2023/04/07 11:40:35;;;;;;;6.97;6.30;;;;;;;13.79;54.75;96088.06;5020467;28;105440;-64
2023/04/07 11:43:17;;;;;;;5.90;5.33;;;;;;;14.30;52.91;96090.09;5010457;28;101953;-64
2023/04/07 11:45:44;;;;;;;9.67;7.40;;;;;;;14.66;52.50;96082.53;5018937;28;104847;-64
2023/04/07 11:48:29;;;;;;;4.63;4.23;;;;;;;14.46;50.21;96077.38;5015265;28;104952;-64
2023/04/07 11:50:56;;;;;;;9.70;8.70;;;;;;;14.63;50.98;96080.41;5009969;28;101823;-64
2023/04/07 11:53:58;;;;;;;5.57;3.80;;;;;;;14.30;49.96;96078.59;5008641;28;105207;-64